Time;durP1;ratioP1;P1;durP2;ratioP2;P2;SDS_P1;SDS_P2;PMS_P1;PMS_P2;Temp;Humidity;BMP_temperature;BMP_pressure;BME280_temperature;BME280_humidity;BME280_pressure;Samples;Min_cycle;Max_cycle;Signal;HPM_P1;HPM_P2
2022/10/31 00:01:32;;;;;;;31.45;14.48;;;13.10;99.90;;;;;;5004602;28;20029;-86
2022/10/31 00:03:57;;;;;;;29.10;14.75;;;13.00;99.90;;;;;;5021112;28;20068;-86
2022/10/31 00:06:24;;;;;;;25.55;14.18;;;13.00;99.90;;;;;;5008786;28;20077;-86
2022/10/31 00:08:58;;;;;;;22.92;13.75;;;13.00;99.90;;;;;;5021954;28;20072;-86
2022/10/31 00:11:24;;;;;;;30.02;14.93;;;12.90;99.90;;;;;;5023291;28;20045;-86
2022/10/31 00:13:50;;;;;;;26.25;14.50;;;12.90;99.90;;;;;;5023459;28;20041;-86
2022/10/31 00:16:22;;;;;;;23.55;14.20;;;12.80;99.90;;;;;;4987955;28;20046;-86
2022/10/31 00:18:52;;;;;;;25.83;14.23;;;12.80;99.90;;;;;;5023350;28;20083;-86
2022/10/31 00:21:18;;;;;;;27.77;15.02;;;12.80;99.90;;;;;;5005220;28;20252;-86
2022/10/31 00:23:45;;;;;;;34.35;16.42;;;12.70;99.90;;;;;;5006740;28;20172;-87
2022/10/31 00:26:11;;;;;;;27.48;16.02;;;12.70;99.90;;;;;;4989297;28;20486;-86
2022/10/31 00:28:36;;;;;;;31.13;16.63;;;12.70;99.90;;;;;;5020577;28;20041;-86
2022/10/31 00:31:04;;;;;;;30.13;16.92;;;12.60;99.90;;;;;;4990100;28;20041;-86
2022/10/31 00:33:29;;;;;;;36.83;18.00;;;12.60;99.90;;;;;;5021686;28;20053;-86
2022/10/31 00:35:56;;;;;;;29.05;16.67;;;12.60;99.90;;;;;;4991981;28;20037;-87
2022/10/31 00:38:21;;;;;;;30.55;17.42;;;12.50;99.90;;;;;;5023213;28;20041;-86
2022/10/31 00:40:47;;;;;;;30.85;16.92;;;12.50;99.90;;;;;;4990301;28;20029;-86
2022/10/31 00:43:13;;;;;;;31.98;16.85;;;12.50;99.90;;;;;;4975935;28;20037;-86
2022/10/31 00:45:39;;;;;;;32.60;17.20;;;12.40;99.90;;;;;;5025290;28;20037;-86
2022/10/31 00:48:05;;;;;;;32.92;18.05;;;12.40;99.90;;;;;;5009700;28;20045;-86
2022/10/31 00:50:30;;;;;;;28.83;17.83;;;12.40;99.90;;;;;;5010685;28;20063;-86
2022/10/31 00:52:57;;;;;;;29.50;17.27;;;12.40;99.90;;;;;;4977013;28;20033;-86
2022/10/31 00:55:24;;;;;;;25.77;15.80;;;12.40;99.90;;;;;;5010769;28;20048;-86
2022/10/31 00:57:50;;;;;;;31.05;17.10;;;12.30;99.90;;;;;;5008977;28;20140;-86
2022/10/31 01:00:16;;;;;;;28.38;17.40;;;12.30;99.90;;;;;;5026356;28;20045;-86
2022/10/31 01:02:41;;;;;;;28.02;17.45;;;12.30;99.90;;;;;;5009591;28;20040;-86
2022/10/31 01:05:07;;;;;;;26.08;16.15;;;12.20;99.90;;;;;;4989903;28;20041;-86
2022/10/31 01:07:37;;;;;;;31.58;18.60;;;12.30;99.90;;;;;;4992893;28;20080;-86
2022/10/31 01:10:03;;;;;;;31.27;16.45;;;12.20;99.90;;;;;;4992258;28;20368;-86
2022/10/31 01:12:29;;;;;;;32.42;17.00;;;12.20;99.90;;;;;;5026297;28;20046;-87
2022/10/31 01:14:55;;;;;;;28.40;17.55;;;12.20;99.90;;;;;;5009332;28;20098;-86
2022/10/31 01:17:21;;;;;;;24.25;15.57;;;12.20;99.90;;;;;;5012333;28;20037;-87
2022/10/31 01:19:46;;;;;;;29.45;17.08;;;12.10;99.90;;;;;;5026853;28;20072;-87
2022/10/31 01:22:12;;;;;;;27.60;16.27;;;12.10;99.90;;;;;;5009771;28;20498;-86
2022/10/31 01:24:37;;;;;;;27.75;15.95;;;12.10;99.90;;;;;;5009865;28;21929;-86
2022/10/31 01:27:03;;;;;;;25.00;15.52;;;12.10;99.90;;;;;;5011080;28;20051;-86
2022/10/31 01:29:29;;;;;;;26.42;15.85;;;12.00;99.90;;;;;;4978331;28;20038;-86
2022/10/31 01:31:54;;;;;;;26.48;15.93;;;12.00;99.90;;;;;;5009835;28;20037;-86
2022/10/31 01:34:20;;;;;;;28.40;16.20;;;12.00;99.90;;;;;;5010535;28;20068;-86
2022/10/31 01:36:50;;;;;;;27.02;17.58;;;12.00;99.90;;;;;;4977901;28;20034;-86
2022/10/31 01:39:17;;;;;;;32.28;18.73;;;12.00;99.90;;;;;;5026987;28;20505;-86
2022/10/31 01:41:53;;;;;;;34.13;18.08;;;12.00;99.90;;;;;;5009321;28;20388;-86
2022/10/31 01:44:19;;;;;;;32.88;17.95;;;12.00;99.90;;;;;;5005913;28;20085;-86
2022/10/31 01:46:44;;;;;;;30.77;17.92;;;12.00;99.90;;;;;;5009585;28;20661;-86
2022/10/31 01:49:23;;;;;;;27.15;16.80;;;12.00;99.90;;;;;;5011085;28;20049;-86
2022/10/31 01:51:59;;;;;;;26.17;17.85;;;12.10;99.90;;;;;;5024372;28;20734;-86
2022/10/31 01:54:30;;;;;;;32.90;17.48;;;12.00;99.90;;;;;;5011269;28;20041;-86
2022/10/31 01:56:57;;;;;;;29.30;16.83;;;12.00;99.90;;;;;;5038428;28;20392;-86
2022/10/31 01:59:27;;;;;;;28.98;18.52;;;12.00;99.90;;;;;;5027596;28;20069;-86
2022/10/31 02:01:54;;;;;;;28.52;17.00;;;12.00;99.90;;;;;;5008457;28;20037;-86
2022/10/31 02:04:22;;;;;;;31.98;17.52;;;11.90;99.90;;;;;;5027097;28;20033;-86
2022/10/31 02:06:57;;;;;;;28.27;16.48;;;11.90;99.90;;;;;;5027115;28;20160;-86
2022/10/31 02:09:24;;;;;;;28.40;17.30;;;11.90;99.90;;;;;;5007692;28;20045;-86
2022/10/31 02:11:54;;;;;;;34.15;18.60;;;11.80;99.90;;;;;;4992434;28;20127;-86
2022/10/31 02:14:25;;;;;;;28.98;17.77;;;11.80;99.90;;;;;;5025604;28;20033;-86
2022/10/31 02:16:51;;;;;;;27.00;17.42;;;11.80;99.90;;;;;;5023308;28;20533;-86
2022/10/31 02:19:28;;;;;;;26.85;16.55;;;11.80;99.90;;;;;;5006331;28;20076;-86
2022/10/31 02:22:16;;;;;;;29.42;18.45;;;11.80;99.90;;;;;;5025571;28;20523;-86
2022/10/31 02:25:11;;;;;;;30.80;18.15;;;11.70;99.90;;;;;;5025613;28;20398;-86
2022/10/31 02:27:43;;;;;;;26.80;16.98;;;11.70;99.90;;;;;;5020430;28;20049;-86
2022/10/31 02:30:18;;;;;;;27.35;18.02;;;11.70;99.90;;;;;;5025758;28;20566;-86
2022/10/31 02:33:12;;;;;;;28.17;16.40;;;11.70;99.90;;;;;;5026023;28;20041;-86
2022/10/31 02:35:40;;;;;;;26.55;16.13;;;11.60;99.90;;;;;;5024694;28;20300;-86
2022/10/31 02:38:36;;;;;;;25.38;16.33;;;11.60;99.90;;;;;;5010023;28;20075;-86
2022/10/31 02:41:14;;;;;;;23.92;15.40;;;11.60;99.90;;;;;;5006970;28;20033;-86
2022/10/31 02:43:53;;;;;;;24.40;16.33;;;11.60;99.90;;;;;;5008273;28;20050;-86
2022/10/31 02:46:55;;;;;;;28.02;16.58;;;11.60;99.90;;;;;;5004552;28;20394;-86
2022/10/31 02:49:38;;;;;;;28.27;16.40;;;11.60;99.90;;;;;;5003025;28;20093;-86
2022/10/31 02:52:29;;;;;;;24.02;15.48;;;11.50;99.90;;;;;;5022838;28;20038;-86
2022/10/31 02:54:55;;;;;;;25.33;14.98;;;11.40;99.90;;;;;;5006749;28;20417;-87
2022/10/31 02:57:34;;;;;;;22.65;15.65;;;11.40;99.90;;;;;;5022918;28;20038;-86
2022/10/31 03:00:05;;;;;;;23.10;15.25;;;11.30;99.90;;;;;;5021952;28;20044;-86
2022/10/31 03:02:43;;;;;;;22.88;14.63;;;11.30;99.90;;;;;;5008322;28;20172;-86
2022/10/31 03:05:33;;;;;;;21.83;14.68;;;11.30;99.90;;;;;;5003611;28;20045;-86
2022/10/31 03:08:14;;;;;;;23.50;14.70;;;11.20;99.90;;;;;;4999150;28;20401;-86
2022/10/31 03:11:05;;;;;;;25.77;16.17;;;11.20;99.90;;;;;;5006532;28;20033;-86
2022/10/31 03:13:59;;;;;;;24.05;16.15;;;11.20;99.90;;;;;;5002348;28;20111;-86
2022/10/31 03:16:49;;;;;;;23.85;15.05;;;11.20;99.90;;;;;;5023455;28;20057;-86
2022/10/31 03:19:28;;;;;;;22.95;15.80;;;11.10;99.90;;;;;;5001349;28;20036;-86
2022/10/31 03:22:00;;;;;;;23.40;15.63;;;11.10;99.90;;;;;;5023335;28;20441;-87
2022/10/31 03:24:37;;;;;;;21.80;15.23;;;11.10;99.90;;;;;;5008383;28;20045;-86
2022/10/31 03:27:05;;;;;;;24.90;15.38;;;11.10;99.90;;;;;;5008062;28;20061;-86
2022/10/31 03:29:35;;;;;;;26.25;14.75;;;11.00;99.90;;;;;;5008590;28;20037;-86
2022/10/31 03:32:06;;;;;;;21.83;15.00;;;11.10;99.90;;;;;;5021008;28;20033;-86
2022/10/31 03:34:32;;;;;;;23.52;14.70;;;11.10;99.90;;;;;;5024951;28;20513;-86
2022/10/31 03:37:03;;;;;;;27.55;15.82;;;11.00;99.90;;;;;;5009793;28;20445;-86
2022/10/31 03:39:31;;;;;;;26.00;14.57;;;11.00;99.90;;;;;;5006978;28;20073;-86
2022/10/31 03:42:07;;;;;;;27.52;16.33;;;11.00;99.90;;;;;;4974301;28;20044;-86
2022/10/31 03:44:34;;;;;;;22.90;15.20;;;11.00;99.90;;;;;;5023453;28;20029;-86
2022/10/31 03:47:01;;;;;;;25.95;16.02;;;11.10;99.90;;;;;;4989984;28;20055;-86
2022/10/31 03:49:27;;;;;;;25.25;14.75;;;11.00;99.90;;;;;;5008549;28;20239;-86
2022/10/31 03:52:06;;;;;;;27.88;15.90;;;11.00;99.90;;;;;;5006469;28;20486;-86
2022/10/31 03:54:34;;;;;;;22.83;15.07;;;10.90;99.90;;;;;;5041702;28;20049;-86
2022/10/31 03:57:14;;;;;;;24.77;15.75;;;10.90;99.90;;;;;;5006643;28;20116;-86
2022/10/31 04:00:04;;;;;;;23.45;16.52;;;10.90;99.90;;;;;;5009366;28;20104;-86
2022/10/31 04:02:33;;;;;;;22.33;15.32;;;10.90;99.90;;;;;;5004448;28;20029;-86
2022/10/31 04:05:01;;;;;;;24.60;15.05;;;10.80;99.90;;;;;;5023137;28;20056;-86
2022/10/31 04:07:31;;;;;;;25.27;13.18;;;10.80;99.90;;;;;;5004948;28;20509;-87
2022/10/31 04:10:00;;;;;;;25.40;15.60;;;10.70;99.90;;;;;;5005072;28;20103;-86
2022/10/31 04:12:27;;;;;;;25.23;14.05;;;10.70;99.90;;;;;;5006461;28;20521;-87
2022/10/31 04:14:54;;;;;;;21.58;14.20;;;10.60;99.90;;;;;;5022887;28;20050;-87
2022/10/31 04:17:22;;;;;;;19.35;13.90;;;10.50;99.90;;;;;;4989519;28;20045;-86
2022/10/31 04:19:48;;;;;;;20.90;13.63;;;10.50;99.90;;;;;;5024544;28;20090;-86
2022/10/31 04:22:14;;;;;;;22.08;15.30;;;10.40;99.90;;;;;;5009963;28;20029;-86
2022/10/31 04:24:40;;;;;;;19.20;13.00;;;10.40;99.90;;;;;;4993414;28;20079;-86
2022/10/31 04:27:06;;;;;;;19.27;13.93;;;10.40;99.90;;;;;;5010558;28;20056;-86
2022/10/31 04:29:32;;;;;;;21.27;13.75;;;10.30;99.90;;;;;;4994847;28;20037;-86
2022/10/31 04:31:58;;;;;;;23.38;13.68;;;10.30;99.90;;;;;;4992789;28;20052;-86
2022/10/31 04:34:23;;;;;;;20.77;14.38;;;10.20;99.90;;;;;;4994289;28;20041;-86
2022/10/31 04:36:49;;;;;;;24.60;15.52;;;10.20;99.90;;;;;;4979945;28;20033;-86
2022/10/31 04:39:15;;;;;;;24.85;16.08;;;10.10;99.90;;;;;;4982014;28;20076;-86
2022/10/31 04:41:40;;;;;;;21.63;14.80;;;10.10;99.90;;;;;;4994333;28;20049;-86
2022/10/31 04:44:06;;;;;;;21.13;14.68;;;10.00;99.90;;;;;;5011508;28;20060;-86
2022/10/31 04:46:32;;;;;;;18.40;14.05;;;9.50;99.90;;;;;;5010618;28;20037;-86
2022/10/31 04:48:57;;;;;;;20.77;14.60;;;9.90;99.90;;;;;;4994259;28;20319;-86
2022/10/31 04:51:23;;;;;;;22.52;13.68;;;9.90;99.90;;;;;;5011429;28;20421;-86
2022/10/31 04:53:49;;;;;;;17.08;12.68;;;9.80;99.90;;;;;;5009414;28;20033;-86
2022/10/31 04:56:14;;;;;;;15.05;9.75;;;10.30;99.90;;;;;;5010955;28;20048;-87
2022/10/31 04:58:40;;;;;;;16.95;11.63;;;9.90;99.90;;;;;;5010015;28;20045;-86
2022/10/31 05:01:06;;;;;;;16.63;11.63;;;9.70;99.90;;;;;;4995268;28;20437;-87
2022/10/31 05:03:31;;;;;;;16.65;11.50;;;9.70;99.90;;;;;;4994413;28;20405;-86
2022/10/31 05:05:57;;;;;;;17.67;11.73;;;9.60;99.90;;;;;;4995102;28;20107;-86
2022/10/31 05:08:22;;;;;;;15.85;10.52;;;9.60;99.90;;;;;;5009960;28;20041;-86
2022/10/31 05:10:48;;;;;;;19.90;12.73;;;9.60;99.90;;;;;;4996081;28;20041;-86
2022/10/31 05:13:15;;;;;;;16.80;12.45;;;9.60;99.90;;;;;;4993963;28;20427;-86
2022/10/31 05:15:41;;;;;;;19.13;13.45;;;9.60;99.90;;;;;;5027834;28;20073;-86
2022/10/31 05:18:07;;;;;;;21.42;14.25;;;9.50;99.90;;;;;;4995113;28;20116;-86
2022/10/31 05:20:33;;;;;;;73.55;21.45;;;9.50;99.90;;;;;;5011215;28;20118;-86
2022/10/31 05:22:59;;;;;;;21.65;15.27;;;9.50;99.90;;;;;;5007033;28;20033;-86
2022/10/31 05:25:27;;;;;;;26.58;15.90;;;9.40;99.90;;;;;;5008226;28;20064;-86
2022/10/31 05:27:54;;;;;;;21.15;13.15;;;9.50;99.90;;;;;;4992231;28;20076;-86
2022/10/31 05:30:27;;;;;;;26.02;13.57;;;9.40;99.90;;;;;;5026193;28;20411;-86
2022/10/31 05:32:53;;;;;;;29.58;14.00;;;9.40;99.90;;;;;;5006902;28;20042;-86
2022/10/31 05:35:21;;;;;;;17.95;11.68;;;9.40;99.90;;;;;;5010121;28;20388;-87
2022/10/31 05:37:47;;;;;;;16.08;11.90;;;9.30;99.90;;;;;;5024729;28;20580;-86
2022/10/31 05:40:15;;;;;;;50.30;16.10;;;9.30;99.90;;;;;;5009457;28;20071;-86
2022/10/31 05:42:41;;;;;;;39.40;17.08;;;9.60;99.90;;;;;;4992295;28;20033;-86
2022/10/31 05:45:09;;;;;;;24.30;15.25;;;9.30;99.90;;;;;;5009654;28;20478;-86
2022/10/31 05:47:34;;;;;;;24.98;12.23;;;9.20;99.90;;;;;;4992979;28;20163;-87
2022/10/31 05:50:00;;;;;;;33.88;13.45;;;9.20;99.90;;;;;;5007041;28;20542;-86
2022/10/31 05:52:26;;;;;;;27.27;15.45;;;9.20;99.90;;;;;;5010025;28;20148;-87
2022/10/31 05:54:51;;;;;;;24.08;14.00;;;9.20;99.90;;;;;;4992581;28;20041;-86
2022/10/31 05:57:17;;;;;;;22.05;15.07;;;9.20;99.90;;;;;;5026281;28;20045;-86
2022/10/31 05:59:43;;;;;;;23.00;14.13;;;9.20;99.90;;;;;;4992579;28;20037;-86
2022/10/31 06:02:09;;;;;;;23.23;14.93;;;9.20;99.90;;;;;;5021886;28;20494;-86
2022/10/31 06:04:34;;;;;;;24.98;15.23;;;9.20;99.90;;;;;;5010585;28;20134;-86
2022/10/31 06:07:00;;;;;;;25.63;14.82;;;9.20;99.90;;;;;;5009104;28;20045;-87
2022/10/31 06:09:25;;;;;;;26.40;15.45;;;9.20;99.90;;;;;;4978049;28;20049;-86
2022/10/31 06:11:51;;;;;;;27.15;15.93;;;9.20;99.90;;;;;;5026195;28;20041;-86
2022/10/31 06:14:17;;;;;;;20.90;14.88;;;9.20;99.90;;;;;;4992513;28;20049;-86
2022/10/31 06:16:43;;;;;;;27.25;16.38;;;9.20;99.90;;;;;;5009385;28;20252;-86
2022/10/31 06:19:08;;;;;;;21.20;11.80;;;9.20;99.90;;;;;;4992401;28;20533;-86
2022/10/31 06:21:34;;;;;;;17.33;11.18;;;9.10;99.90;;;;;;5007472;28;20030;-87
2022/10/31 06:24:00;;;;;;;17.13;10.60;;;9.20;99.90;;;;;;4987511;28;20049;-86
2022/10/31 06:26:25;;;;;;;15.75;10.93;;;9.40;99.90;;;;;;4977071;28;20041;-86
2022/10/31 06:28:51;;;;;;;40.13;15.27;;;9.00;99.90;;;;;;5007867;28;20069;-87
2022/10/31 06:31:17;;;;;;;28.45;12.93;;;9.00;99.90;;;;;;5007988;28;20406;-86
2022/10/31 06:33:42;;;;;;;26.80;14.82;;;9.30;99.90;;;;;;5007177;28;20120;-86
2022/10/31 06:36:09;;;;;;;26.63;17.08;;;9.00;99.90;;;;;;5009118;28;20041;-86
2022/10/31 06:38:35;;;;;;;25.63;14.95;;;9.00;99.90;;;;;;5023455;28;20029;-87
2022/10/31 06:41:05;;;;;;;26.27;16.00;;;9.00;99.90;;;;;;4993134;28;20036;-86
2022/10/31 06:43:31;;;;;;;27.75;17.48;;;9.00;99.90;;;;;;4990191;28;20506;-86
2022/10/31 06:45:57;;;;;;;27.63;17.65;;;9.00;99.90;;;;;;5009450;28;20080;-86
2022/10/31 06:48:23;;;;;;;25.80;17.42;;;9.00;99.90;;;;;;5022083;28;20393;-87
2022/10/31 06:50:49;;;;;;;31.08;17.83;;;9.00;99.90;;;;;;5024493;28;20140;-86
2022/10/31 06:53:15;;;;;;;21.92;14.75;;;9.10;99.90;;;;;;5007327;28;20128;-86
2022/10/31 06:55:41;;;;;;;23.30;14.30;;;9.10;99.90;;;;;;5008668;28;20087;-86
2022/10/31 06:58:09;;;;;;;17.65;12.38;;;9.00;99.90;;;;;;5015197;28;20574;-86
2022/10/31 07:00:35;;;;;;;14.82;10.95;;;9.00;99.90;;;;;;5024608;28;20121;-86
2022/10/31 07:03:11;;;;;;;15.75;11.52;;;8.90;99.90;;;;;;4988962;28;20128;-86
2022/10/31 07:05:37;;;;;;;16.70;11.60;;;8.80;99.90;;;;;;5003148;28;20049;-86
2022/10/31 07:08:06;;;;;;;32.88;16.25;;;9.00;99.90;;;;;;5007333;28;20045;-85
2022/10/31 07:10:33;;;;;;;23.13;15.27;;;8.80;99.90;;;;;;5023303;28;20060;-85
2022/10/31 07:13:01;;;;;;;30.00;16.63;;;8.80;99.90;;;;;;5006163;28;20447;-85
2022/10/31 07:15:29;;;;;;;28.73;16.38;;;8.90;99.90;;;;;;5007464;28;20054;-85
2022/10/31 07:18:01;;;;;;;27.80;16.83;;;8.90;99.90;;;;;;5006816;28;20049;-86
2022/10/31 07:20:27;;;;;;;28.50;16.80;;;9.00;99.90;;;;;;5005782;28;20033;-86
2022/10/31 07:22:53;;;;;;;24.63;15.55;;;9.00;99.90;;;;;;4991764;28;20350;-86
2022/10/31 07:25:18;;;;;;;31.10;16.58;;;9.00;99.90;;;;;;5007025;28;20099;-86
2022/10/31 07:27:44;;;;;;;27.13;16.65;;;9.10;99.90;;;;;;5007949;28;20041;-85
2022/10/31 07:30:12;;;;;;;20.30;14.20;;;9.10;99.90;;;;;;5007584;28;20037;-86
2022/10/31 07:32:47;;;;;;;25.55;13.90;;;9.00;99.90;;;;;;5006764;28;20692;-86
2022/10/31 07:35:16;;;;;;;23.92;15.70;;;9.00;99.90;;;;;;5004511;28;20037;-86
2022/10/31 07:37:42;;;;;;;20.73;14.95;;;9.00;99.90;;;;;;5003910;28;20043;-86
2022/10/31 07:40:08;;;;;;;32.42;17.48;;;9.00;99.90;;;;;;4989236;28;20413;-86
2022/10/31 07:42:36;;;;;;;25.88;16.30;;;9.10;99.90;;;;;;5019912;28;20480;-86
2022/10/31 07:45:02;;;;;;;27.15;16.95;;;9.10;99.90;;;;;;5011535;28;20037;-86
2022/10/31 07:47:28;;;;;;;27.70;17.02;;;9.10;99.90;;;;;;5028127;28;20434;-86
2022/10/31 07:49:53;;;;;;;29.13;16.38;;;9.10;99.90;;;;;;5011349;28;20120;-86
2022/10/31 07:52:19;;;;;;;29.98;16.75;;;9.10;99.90;;;;;;4984552;28;20044;-86
2022/10/31 07:54:45;;;;;;;25.30;16.13;;;9.30;99.90;;;;;;5027144;28;20034;-85
2022/10/31 07:57:10;;;;;;;27.58;18.42;;;9.20;99.90;;;;;;4993526;28;20148;-86
2022/10/31 07:59:36;;;;;;;29.48;18.35;;;9.20;99.90;;;;;;4992869;28;20064;-85
2022/10/31 08:02:02;;;;;;;37.30;21.55;;;9.20;99.90;;;;;;5008320;28;20034;-86
2022/10/31 08:04:27;;;;;;;49.28;25.77;;;9.30;99.90;;;;;;5017602;28;20037;-86
2022/10/31 08:06:53;;;;;;;50.80;27.40;;;9.40;99.90;;;;;;4995477;28;20069;-86
2022/10/31 08:09:19;;;;;;;47.17;26.23;;;9.50;99.90;;;;;;4994701;28;20449;-86
2022/10/31 08:11:44;;;;;;;52.55;26.90;;;9.50;99.90;;;;;;5027886;28;20060;-86
2022/10/31 08:14:10;;;;;;;52.35;27.52;;;9.60;99.90;;;;;;5011302;28;20063;-86
2022/10/31 08:16:36;;;;;;;53.45;28.63;;;9.70;99.90;;;;;;4995010;28;20057;-86
2022/10/31 08:19:01;;;;;;;57.78;27.98;;;9.80;99.90;;;;;;5001585;28;20038;-86
2022/10/31 08:21:27;;;;;;;57.28;29.42;;;9.90;99.90;;;;;;4976369;28;20033;-85
2022/10/31 08:23:52;;;;;;;48.50;27.75;;;10.10;99.90;;;;;;4986425;28;20038;-86
2022/10/31 08:26:18;;;;;;;55.70;29.73;;;10.20;99.90;;;;;;5011366;28;20056;-86
2022/10/31 08:28:44;;;;;;;51.78;28.88;;;10.20;99.90;;;;;;5011022;28;20099;-86
2022/10/31 08:31:09;;;;;;;56.28;29.15;;;10.30;99.90;;;;;;5011385;28;20049;-86
2022/10/31 08:33:38;;;;;;;62.75;29.83;;;10.40;99.90;;;;;;4995199;28;20650;-86
2022/10/31 08:36:04;;;;;;;47.40;26.40;;;10.40;99.90;;;;;;5027731;28;20514;-85
2022/10/31 08:38:29;;;;;;;50.88;28.73;;;10.50;99.90;;;;;;4984991;28;20061;-86
2022/10/31 08:40:55;;;;;;;47.33;27.80;;;10.60;99.90;;;;;;5009642;28;20505;-85
2022/10/31 08:43:21;;;;;;;54.67;29.23;;;10.60;99.90;;;;;;4992351;28;20034;-86
2022/10/31 08:45:49;;;;;;;52.17;27.88;;;10.70;99.90;;;;;;5027574;28;20033;-85
2022/10/31 08:48:16;;;;;;;61.35;30.25;;;10.80;99.90;;;;;;5011017;28;20549;-86
2022/10/31 08:50:43;;;;;;;61.08;30.90;;;10.90;99.90;;;;;;5010966;28;20514;-86
2022/10/31 08:53:13;;;;;;;52.55;28.13;;;11.00;99.90;;;;;;5027320;28;20175;-85
2022/10/31 08:55:40;;;;;;;57.90;30.08;;;11.10;99.90;;;;;;5011037;28;20116;-86
2022/10/31 08:58:07;;;;;;;53.72;30.35;;;11.20;99.90;;;;;;5027458;28;20195;-86
2022/10/31 09:00:34;;;;;;;58.47;31.02;;;11.30;99.90;;;;;;5010144;28;20042;-86
2022/10/31 09:03:06;;;;;;;60.80;28.45;;;11.50;99.90;;;;;;5002574;28;20041;-86
2022/10/31 09:05:32;;;;;;;53.50;28.65;;;11.60;99.90;;;;;;5028554;28;20079;-86
2022/10/31 09:08:00;;;;;;;49.45;28.52;;;11.80;99.90;;;;;;5014339;28;20041;-85
2022/10/31 09:10:27;;;;;;;52.97;27.02;;;11.80;99.90;;;;;;5030757;28;20045;-86
2022/10/31 09:13:06;;;;;;;49.85;27.27;;;12.00;99.90;;;;;;5014280;28;20037;-86
2022/10/31 09:15:34;;;;;;;49.00;26.63;;;12.00;99.90;;;;;;5030742;28;20058;-86
2022/10/31 09:18:00;;;;;;;46.03;25.05;;;12.10;99.90;;;;;;5003373;28;20038;-85
2022/10/31 09:20:27;;;;;;;46.03;26.20;;;12.10;99.90;;;;;;5014438;28;20107;-86
2022/10/31 09:23:01;;;;;;;44.83;24.85;;;12.20;99.90;;;;;;4997673;28;20121;-85
2022/10/31 09:25:27;;;;;;;40.40;24.48;;;12.30;99.90;;;;;;5030500;28;20045;-86
2022/10/31 09:27:59;;;;;;;42.55;23.42;;;12.40;99.90;;;;;;5030393;28;20029;-85
2022/10/31 09:30:27;;;;;;;42.28;24.90;;;12.40;99.90;;;;;;4997533;28;20045;-85
2022/10/31 09:33:00;;;;;;;41.55;23.77;;;12.40;99.90;;;;;;4998048;28;20437;-86
2022/10/31 09:35:26;;;;;;;36.92;22.05;;;12.40;99.90;;;;;;5014037;28;20123;-86
2022/10/31 09:38:01;;;;;;;45.45;24.75;;;12.50;99.90;;;;;;5013816;28;20029;-86
2022/10/31 09:40:55;;;;;;;41.97;22.85;;;12.50;99.90;;;;;;5030381;28;20087;-86
2022/10/31 09:43:25;;;;;;;40.63;21.92;;;12.50;99.90;;;;;;5027635;28;20034;-86
2022/10/31 09:46:37;;;;;;;37.10;21.83;;;12.50;99.90;;;;;;5007241;28;20092;-86
2022/10/31 09:49:21;;;;;;;39.40;23.00;;;12.50;99.90;;;;;;4957995;28;20555;-86
2022/10/31 09:52:32;;;;;;;34.45;20.85;;;12.60;99.90;;;;;;5009064;28;20136;-86
2022/10/31 09:55:23;;;;;;;36.85;20.42;;;12.60;99.90;;;;;;5011701;28;20050;-86
2022/10/31 09:57:48;;;;;;;37.58;21.40;;;12.70;99.90;;;;;;5012298;28;20850;-85
2022/10/31 10:00:19;;;;;;;41.45;22.17;;;12.80;99.90;;;;;;4986329;28;20121;-86
2022/10/31 10:02:59;;;;;;;33.88;20.42;;;12.80;99.90;;;;;;5032929;28;20058;-86
2022/10/31 10:05:36;;;;;;;36.13;21.27;;;12.90;99.90;;;;;;5028869;28;20538;-86
2022/10/31 10:08:23;;;;;;;36.55;21.15;;;13.00;99.90;;;;;;5027771;28;20034;-86
2022/10/31 10:10:55;;;;;;;36.38;21.00;;;13.00;99.90;;;;;;5020401;28;20159;-86
2022/10/31 10:13:45;;;;;;;34.55;19.38;;;13.10;99.90;;;;;;5027739;28;20524;-86
2022/10/31 10:16:35;;;;;;;33.47;20.52;;;13.20;99.90;;;;;;5012851;28;20053;-86
2022/10/31 10:19:21;;;;;;;35.15;19.27;;;13.30;99.90;;;;;;5013004;28;20398;-86
2022/10/31 10:22:14;;;;;;;36.55;20.75;;;13.40;99.90;;;;;;5026496;28;20053;-86
2022/10/31 10:24:50;;;;;;;;;;;13.40;99.90;;;;;;5029537;28;20033;-85
2022/10/31 10:27:28;;;;;;;38.15;19.73;;;13.50;99.90;;;;;;5010589;28;20396;-86
2022/10/31 10:30:12;;;;;;;39.35;19.77;;;13.60;99.90;;;;;;5007443;28;20049;-86
2022/10/31 10:32:57;;;;;;;34.67;19.30;;;13.60;99.90;;;;;;5025331;28;20414;-86
2022/10/31 10:35:37;;;;;;;34.35;19.20;;;13.60;99.90;;;;;;5011103;28;20057;-86
2022/10/31 10:38:16;;;;;;;36.40;19.15;;;13.70;99.90;;;;;;5027586;28;20084;-86
2022/10/31 10:40:42;;;;;;;33.75;19.17;;;13.70;99.90;;;;;;5012368;28;20029;-86
2022/10/31 10:43:34;;;;;;;34.15;19.52;;;13.70;99.90;;;;;;5026770;28;20041;-86
2022/10/31 10:49:02;;;;;;;28.83;16.73;;;13.80;99.90;;;;;;5020825;28;20410;-86
2022/10/31 10:51:37;;;;;;;28.90;17.85;;;13.80;99.90;;;;;;5028821;28;20038;-86
2022/10/31 10:54:03;;;;;;;26.35;17.15;;;13.90;99.90;;;;;;5011797;28;20094;-85
2022/10/31 10:56:45;;;;;;;28.23;16.55;;;13.90;99.90;;;;;;5007014;28;20298;-86
2022/10/31 10:59:16;;;;;;;31.23;17.33;;;13.90;99.90;;;;;;5027239;28;20045;-85
2022/10/31 11:01:42;;;;;;;29.08;16.77;;;13.90;99.90;;;;;;5002159;28;20117;-85
2022/10/31 11:04:29;;;;;;;30.00;16.90;;;14.00;99.90;;;;;;5027555;28;20045;-85
2022/10/31 11:06:59;;;;;;;29.65;17.33;;;14.00;99.90;;;;;;5009894;28;20048;-85
2022/10/31 11:09:25;;;;;;;29.98;16.95;;;14.00;99.90;;;;;;5021441;28;20033;-86
2022/10/31 11:11:51;;;;;;;30.48;17.67;;;14.10;99.90;;;;;;5009503;28;20174;-86
2022/10/31 11:14:17;;;;;;;33.08;16.33;;;14.20;99.90;;;;;;5008165;28;20052;-86
2022/10/31 11:16:47;;;;;;;25.05;15.88;;;14.20;99.90;;;;;;5011947;28;20060;-86
2022/10/31 11:19:15;;;;;;;26.67;16.35;;;14.30;99.90;;;;;;5011901;28;20064;-85
2022/10/31 11:21:42;;;;;;;28.58;18.60;;;14.30;99.90;;;;;;5009066;28;20032;-90
2022/10/31 11:24:11;;;;;;;28.60;19.23;;;14.30;99.90;;;;;;5004310;28;20048;-85
2022/10/31 11:26:41;;;;;;;30.52;18.20;;;14.30;99.90;;;;;;5002223;28;20049;-86
2022/10/31 11:29:21;;;;;;;24.90;17.23;;;14.30;99.90;;;;;;5020033;28;20076;-86
2022/10/31 11:31:49;;;;;;;27.48;16.75;;;14.30;99.90;;;;;;5006711;28;20041;-86
2022/10/31 11:34:25;;;;;;;30.63;17.45;;;14.20;99.90;;;;;;5011745;28;20052;-86
2022/10/31 11:36:51;;;;;;;30.80;18.35;;;14.30;99.90;;;;;;5011888;28;20465;-86
2022/10/31 11:39:22;;;;;;;37.88;19.20;;;14.30;99.90;;;;;;4977290;28;20033;-86
2022/10/31 11:41:49;;;;;;;33.42;19.83;;;14.20;99.90;;;;;;5026575;28;20073;-86
2022/10/31 11:44:20;;;;;;;27.25;19.00;;;14.20;99.90;;;;;;4995796;28;20033;-86
2022/10/31 11:46:55;;;;;;;30.83;18.60;;;14.30;99.90;;;;;;5011623;28;20525;-86
2022/10/31 11:49:32;;;;;;;28.35;18.88;;;14.30;99.90;;;;;;5028128;28;20045;-85
2022/10/31 11:52:07;;;;;;;30.67;18.98;;;14.30;99.90;;;;;;5027682;28;20039;-86
2022/10/31 11:54:47;;;;;;;30.85;19.17;;;14.30;99.90;;;;;;5014680;28;20542;-86
2022/10/31 11:57:50;;;;;;;31.42;18.77;;;14.40;99.90;;;;;;5010821;28;20128;-86
2022/10/31 12:00:24;;;;;;;33.22;20.00;;;14.50;99.90;;;;;;5007754;28;20056;-86
2022/10/31 12:02:51;;;;;;;35.50;19.23;;;14.50;99.90;;;;;;5011265;28;20068;-86
2022/10/31 12:05:28;;;;;;;31.20;17.83;;;14.60;99.90;;;;;;5012585;28;20044;-86
2022/10/31 12:07:54;;;;;;;29.85;18.05;;;14.60;99.90;;;;;;5027581;28;20108;-86
2022/10/31 12:10:26;;;;;;;29.23;17.45;;;14.60;99.90;;;;;;4995033;28;20146;-86
2022/10/31 12:12:57;;;;;;;29.17;15.77;;;14.60;99.90;;;;;;5018958;28;20685;-86
2022/10/31 12:15:35;;;;;;;24.90;15.25;;;14.70;99.90;;;;;;5011225;28;20053;-86
2022/10/31 12:18:19;;;;;;;24.60;14.95;;;14.70;99.90;;;;;;5002509;28;20041;-85
2022/10/31 12:21:08;;;;;;;28.17;14.35;;;14.70;99.90;;;;;;5027359;28;20056;-86
2022/10/31 12:24:03;;;;;;;25.63;15.20;;;14.70;99.90;;;;;;5026081;28;20037;-86
2022/10/31 12:26:37;;;;;;;28.35;14.57;;;14.70;99.90;;;;;;5012968;28;20081;-85
2022/10/31 12:29:18;;;;;;;27.88;16.02;;;14.70;99.90;;;;;;5011173;28;20140;-86
2022/10/31 12:31:56;;;;;;;29.83;15.85;;;14.70;99.90;;;;;;5005913;28;20041;-85
2022/10/31 12:34:28;;;;;;;22.83;14.50;;;14.80;99.90;;;;;;5011464;28;20049;-86
2022/10/31 12:37:10;;;;;;;25.35;14.45;;;14.80;99.90;;;;;;5027045;28;20034;-85
2022/10/31 12:39:39;;;;;;;25.52;14.43;;;14.90;99.90;;;;;;5011485;28;20044;-85
2022/10/31 12:42:29;;;;;;;25.15;14.40;;;14.90;99.90;;;;;;5031347;28;20558;-85
2022/10/31 12:45:05;;;;;;;22.95;13.73;;;15.00;99.90;;;;;;5015216;28;20033;-86
2022/10/31 12:47:56;;;;;;;19.77;10.73;;;15.00;99.90;;;;;;5014915;28;20038;-86
2022/10/31 12:50:44;;;;;;;16.30;9.50;;;15.10;99.90;;;;;;5032672;28;20053;-85
2022/10/31 12:53:33;;;;;;;18.88;9.43;;;15.20;99.90;;;;;;5014946;28;20430;-85